« Back
NWS Peachtree City, Ga » Text Product » MCN Terminal Aerodrome Forecast


Printer-friendly Version
Current Version              Previous Versions:   1  2  3  4  5  6  7  8  9  

Terminal Aerodrome Forecast

223
FTUS42 KFFC 291606 AAA
TAFMCN
TAF AMD
KMCN 291606Z 2916/3012 19007KT P6SM BKN200
     FM292000 21009KT P6SM SCT120
     FM300200 21007KT P6SM BKN070
     FM300500 26009KT P6SM BKN025 PROB30 3006/3010 -RA BKN012=

USA.gov is the U.S. government's official web portal to all federal, state and local government web resources and services.